Time;durP1;ratioP1;P1;durP2;ratioP2;P2;SDS_P1;SDS_P2;PMS_P1;PMS_P2;Temp;Humidity;BMP_temperature;BMP_pressure;BME280_temperature;BME280_humidity;BME280_pressure;Samples;Min_cycle;Max_cycle;Signal;HPM_P1;HPM_P2
2022/10/06 00:01:20;;;;;;;8.80;3.92;;;;;;;12.85;69.35;99874.00;5198533;28;20376;-70
2022/10/06 00:04:11;;;;;;;7.05;3.83;;;;;;;12.83;68.77;99879.44;5195462;28;20132;-70
2022/10/06 00:07:01;;;;;;;8.25;4.35;;;;;;;12.73;69.28;99888.38;5182235;28;20054;-72
2022/10/06 00:09:51;;;;;;;6.32;3.63;;;;;;;12.70;69.21;99897.47;5171167;28;20358;-71
2022/10/06 00:12:44;;;;;;;13.65;5.10;;;;;;;12.67;69.17;99903.91;5168727;28;20064;-70
2022/10/06 00:15:35;;;;;;;6.65;4.78;;;;;;;12.80;69.66;99894.84;5165927;28;20060;-71
2022/10/06 00:18:26;;;;;;;8.80;4.30;;;;;;;12.73;69.07;99904.34;5174667;28;20057;-71
2022/10/06 00:21:17;;;;;;;9.60;4.53;;;;;;;12.65;68.75;99905.03;5186147;28;20068;-71
2022/10/06 00:24:07;;;;;;;10.48;4.85;;;;;;;12.63;69.17;99913.13;5180126;28;20132;-71
2022/10/06 00:26:57;;;;;;;8.00;4.88;;;;;;;12.57;68.80;99912.81;5181633;28;20132;-70
2022/10/06 00:29:47;;;;;;;10.48;4.32;;;;;;;12.52;68.54;99918.56;5160964;28;20452;-71
2022/10/06 00:32:38;;;;;;;8.30;5.10;;;;;;;12.49;68.22;99920.66;5170565;28;20065;-71
2022/10/06 00:35:32;;;;;;;9.52;4.63;;;;;;;12.56;69.13;99914.66;5179056;28;20176;-71
2022/10/06 00:38:22;;;;;;;8.98;4.80;;;;;;;12.64;69.24;99920.13;5169170;28;20606;-71
2022/10/06 00:41:15;;;;;;;8.60;4.78;;;;;;;12.50;69.32;99920.50;5154993;28;20520;-71
2022/10/06 00:44:05;;;;;;;13.45;4.55;;;;;;;12.44;69.04;99929.00;5170493;28;20046;-71
2022/10/06 00:46:56;;;;;;;9.27;4.85;;;;;;;12.50;70.25;99923.16;5172110;28;20060;-71
2022/10/06 00:49:46;;;;;;;7.85;4.70;;;;;;;12.42;70.01;99913.19;5155178;28;20046;-71
2022/10/06 00:52:37;;;;;;;7.25;4.35;;;;;;;12.47;69.71;99928.75;5184560;28;20507;-71
2022/10/06 00:55:29;;;;;;;6.50;4.50;;;;;;;12.41;70.01;99937.25;5178741;28;20049;-71
2022/10/06 00:58:20;;;;;;;7.47;4.65;;;;;;;12.37;70.15;99936.69;5169256;28;20077;-71
2022/10/06 01:01:11;;;;;;;10.43;4.93;;;;;;;12.31;70.23;99931.88;5189645;28;20132;-71
2022/10/06 01:04:08;;;;;;;10.07;5.20;;;;;;;12.52;70.51;99952.31;5185963;28;20135;-71
2022/10/06 01:06:59;;;;;;;8.40;4.53;;;;;;;12.43;69.75;99953.94;5171060;28;20101;-71
2022/10/06 01:09:49;;;;;;;8.05;4.68;;;;;;;12.25;69.59;99943.06;5176029;28;20518;-71
2022/10/06 01:12:39;;;;;;;8.13;4.80;;;;;;;12.48;69.96;99956.19;5193724;28;20045;-70
2022/10/06 01:15:30;;;;;;;10.27;4.55;;;;;;;12.37;70.26;99955.28;5196673;28;20054;-70
2022/10/06 01:18:25;;;;;;;8.30;4.32;;;;;;;12.23;69.26;99958.31;5172701;28;20104;-71
2022/10/06 01:21:30;;;;;;;6.20;4.55;;;;;;;12.18;69.78;99953.34;5184315;28;20050;-71
2022/10/06 01:24:20;;;;;;;7.88;4.82;;;;;;;12.35;70.01;99973.22;5187687;28;20155;-71
2022/10/06 01:27:14;;;;;;;12.73;5.13;;;;;;;12.33;69.66;99979.63;5176239;28;20144;-71
2022/10/06 01:30:07;;;;;;;8.38;4.97;;;;;;;12.15;69.88;99956.31;5166974;28;20141;-71
2022/10/06 01:32:58;;;;;;;6.05;4.30;;;;;;;12.28;70.16;99971.19;5173086;28;20097;-71
2022/10/06 01:35:51;;;;;;;13.15;4.90;;;;;;;12.27;70.25;99983.66;5172001;28;20504;-71
2022/10/06 01:38:41;;;;;;;7.95;5.00;;;;;;;12.28;70.53;99985.31;5173614;28;20092;-71
2022/10/06 01:41:32;;;;;;;9.68;5.10;;;;;;;12.23;71.05;99983.06;5188073;28;20052;-71
2022/10/06 01:44:24;;;;;;;10.90;4.72;;;;;;;12.54;70.40;99988.41;5174884;28;20114;-71
2022/10/06 01:47:14;;;;;;;9.15;4.63;;;;;;;12.28;70.11;99987.97;5164533;28;20100;-71
2022/10/06 01:50:06;;;;;;;11.50;4.72;;;;;;;12.45;70.68;99978.59;5185099;28;20072;-71
2022/10/06 01:52:56;;;;;;;12.32;5.05;;;;;;;12.38;70.51;99982.72;5165582;28;20061;-71
2022/10/06 01:55:49;;;;;;;8.00;4.82;;;;;;;12.20;70.58;99974.50;5170447;28;20052;-71
2022/10/06 01:58:43;;;;;;;9.98;4.65;;;;;;;12.16;70.93;99971.28;5171119;28;20049;-71
2022/10/06 02:01:34;;;;;;;7.88;4.72;;;;;;;12.13;70.62;99957.41;5171544;28;20057;-70
2022/10/06 02:04:25;;;;;;;7.68;4.90;;;;;;;12.00;70.95;99957.59;5167381;28;20153;-70
2022/10/06 02:07:15;;;;;;;6.75;4.40;;;;;;;11.93;71.71;99967.88;5157665;28;20456;-70
2022/10/06 02:10:09;;;;;;;7.10;4.55;;;;;;;12.05;70.38;99976.63;5168523;28;20242;-70
2022/10/06 02:12:59;;;;;;;10.82;5.22;;;;;;;12.02;71.78;99990.22;5165887;28;20227;-70
2022/10/06 02:15:49;;;;;;;12.18;5.60;;;;;;;12.03;71.38;99993.72;5166233;28;21189;-70
2022/10/06 02:18:40;;;;;;;10.27;5.22;;;;;;;12.10;71.76;99985.06;5169455;28;20090;-71
2022/10/06 02:21:31;;;;;;;9.00;5.15;;;;;;;12.08;70.45;100002.13;5161738;28;20057;-70
2022/10/06 02:24:21;;;;;;;12.38;4.80;;;;;;;12.04;70.33;100014.00;5167118;28;20061;-70
2022/10/06 02:27:11;;;;;;;7.28;4.90;;;;;;;11.90;70.02;99989.41;5158540;28;20053;-71
2022/10/06 02:30:03;;;;;;;8.00;4.75;;;;;;;12.11;69.96;100007.19;5166311;28;20131;-70
2022/10/06 02:32:54;;;;;;;9.73;4.72;;;;;;;11.96;70.39;100014.63;5168061;28;20444;-70
2022/10/06 02:35:45;;;;;;;10.90;5.25;;;;;;;11.75;71.48;100002.13;5156728;28;20082;-70
2022/10/06 02:38:35;;;;;;;7.95;5.22;;;;;;;11.90;70.74;100020.47;5165235;28;20054;-70
2022/10/06 02:41:29;;;;;;;12.90;5.30;;;;;;;11.93;71.03;100010.41;5170934;28;20542;-70
2022/10/06 02:44:20;;;;;;;7.68;5.00;;;;;;;11.90;71.12;100028.44;5175955;28;20095;-70
2022/10/06 02:47:13;;;;;;;7.78;5.07;;;;;;;11.94;70.82;100022.72;5167582;28;20077;-70
2022/10/06 02:50:06;;;;;;;7.00;4.43;;;;;;;11.84;70.28;100036.88;5182829;28;20054;-70
2022/10/06 02:52:56;;;;;;;7.95;4.40;;;;;;;11.85;69.92;100049.22;5167379;28;20050;-70
2022/10/06 02:55:46;;;;;;;9.00;4.63;;;;;;;11.83;70.67;100054.63;5181277;28;20057;-70
2022/10/06 02:58:41;;;;;;;12.10;4.90;;;;;;;11.72;70.82;100054.66;5153447;28;20171;-70
2022/10/06 03:01:35;;;;;;;7.88;5.07;;;;;;;11.77;71.07;100063.09;5167052;28;20072;-70
2022/10/06 03:04:35;;;;;;;13.05;5.55;;;;;;;11.86;71.69;100077.50;5144624;28;20667;-70
2022/10/06 03:07:25;;;;;;;10.52;5.43;;;;;;;11.99;71.71;100078.19;5164726;28;20127;-71
2022/10/06 03:10:15;;;;;;;9.13;5.38;;;;;;;12.12;71.10;100070.00;5176115;28;20056;-70
2022/10/06 03:13:05;;;;;;;10.48;5.28;;;;;;;12.09;71.40;100080.94;5184933;28;20057;-70
2022/10/06 03:15:56;;;;;;;8.98;5.47;;;;;;;12.08;71.09;100092.50;5169413;28;20118;-71
2022/10/06 03:18:50;;;;;;;7.72;5.03;;;;;;;12.08;71.38;100108.47;5151564;28;20057;-70
2022/10/06 03:21:42;;;;;;;13.90;6.15;;;;;;;12.19;71.26;100109.28;5167547;28;20045;-71
2022/10/06 03:24:34;;;;;;;12.23;5.07;;;;;;;12.42;71.18;100110.03;5153286;28;20143;-70
2022/10/06 03:27:24;;;;;;;8.63;5.45;;;;;;;12.33;71.18;100107.28;5149268;28;20046;-70
2022/10/06 03:30:18;;;;;;;8.90;5.43;;;;;;;12.37;71.00;100108.72;5166773;28;20487;-70
2022/10/06 03:33:08;;;;;;;7.30;5.03;;;;;;;12.19;71.28;100105.78;5180540;28;20056;-70
2022/10/06 03:36:01;;;;;;;8.95;5.65;;;;;;;12.30;71.30;100120.84;5199111;28;20542;-70
2022/10/06 03:38:52;;;;;;;12.05;5.65;;;;;;;12.43;71.98;100125.00;5162359;28;20061;-70
2022/10/06 03:41:46;;;;;;;10.98;5.82;;;;;;;12.43;71.62;100134.81;5156884;28;20060;-70
2022/10/06 03:44:36;;;;;;;8.50;5.35;;;;;;;12.42;71.44;100123.31;5168375;28;20056;-70
2022/10/06 03:47:31;;;;;;;8.15;5.43;;;;;;;12.61;71.70;100140.38;5180193;28;20073;-70
2022/10/06 03:50:21;;;;;;;7.93;5.20;;;;;;;12.75;71.79;100142.75;5148009;28;20045;-71
2022/10/06 03:53:11;;;;;;;11.00;6.43;;;;;;;12.82;71.64;100156.38;5157013;28;20432;-70
2022/10/06 03:56:03;;;;;;;11.40;5.68;;;;;;;12.93;71.31;100146.50;5153117;28;20184;-70
2022/10/06 03:59:02;;;;;;;10.18;5.60;;;;;;;13.00;71.97;100144.16;5175169;28;20049;-71
2022/10/06 04:01:54;;;;;;;11.57;6.00;;;;;;;13.16;71.35;100160.50;5180765;28;20199;-70
2022/10/06 04:04:49;;;;;;;10.40;5.95;;;;;;;13.12;71.02;100145.78;5171030;28;20065;-70
2022/10/06 04:07:40;;;;;;;8.27;5.63;;;;;;;13.36;71.11;100150.81;5157146;28;20563;-71
2022/10/06 04:10:30;;;;;;;9.00;5.93;;;;;;;13.48;71.04;100156.06;5181197;28;20078;-70
2022/10/06 04:13:21;;;;;;;12.07;5.72;;;;;;;13.37;70.82;100164.97;5160158;28;20181;-70
2022/10/06 04:16:17;;;;;;;8.75;5.55;;;;;;;13.37;71.09;100155.16;5164791;28;20428;-71
2022/10/06 04:19:10;;;;;;;14.18;5.70;;;;;;;13.66;70.34;100162.44;5186977;28;20064;-70
2022/10/06 04:22:04;;;;;;;10.02;5.18;;;;;;;13.69;71.11;100166.66;5164296;28;20699;-71
2022/10/06 04:24:55;;;;;;;9.02;5.28;;;;;;;13.68;71.24;100162.31;5175696;28;20069;-71
2022/10/06 04:27:46;;;;;;;10.45;5.88;;;;;;;13.68;71.58;100165.00;5177263;28;20052;-71
2022/10/06 04:30:37;;;;;;;10.95;5.45;;;;;;;13.77;71.12;100169.47;5164471;28;20053;-71
2022/10/06 04:33:31;;;;;;;8.68;5.28;;;;;;;13.90;71.54;100180.75;5167952;28;20057;-70
2022/10/06 04:36:25;;;;;;;15.27;6.15;;;;;;;13.90;71.48;100186.06;5165852;28;20129;-70
2022/10/06 04:39:16;;;;;;;10.73;5.45;;;;;;;13.80;71.14;100177.22;5189306;23;20072;-82
2022/10/06 04:42:08;;;;;;;9.20;5.15;;;;;;;13.88;71.05;100181.88;5165807;28;20603;-81
2022/10/06 04:44:58;;;;;;;13.77;5.85;;;;;;;13.89;71.10;100168.41;5177131;28;20113;-81
2022/10/06 04:47:49;;;;;;;12.15;6.03;;;;;;;13.96;71.29;100190.03;5148875;28;20520;-81
2022/10/06 04:50:40;;;;;;;15.73;5.90;;;;;;;13.94;70.62;100190.19;5141514;28;20161;-82
2022/10/06 04:53:33;;;;;;;14.20;6.93;;;;;;;14.10;70.39;100202.97;5142012;28;20066;-81
2022/10/06 04:56:28;;;;;;;13.00;6.50;;;;;;;13.92;70.48;100184.13;5148498;28;20075;-81
2022/10/06 05:00:21;;;;;;;11.77;5.18;;;;;;;14.19;69.68;100193.31;5144913;28;20113;-81
2022/10/06 05:02:33;;;;;;;11.18;5.22;;;;;;;14.06;69.85;100202.41;5177891;28;20197;-81
2022/10/06 05:05:24;;;;;;;8.77;5.43;;;;;;;14.10;71.01;100200.31;5162123;28;20066;-80
2022/10/06 05:08:16;;;;;;;10.45;5.13;;;;;;;14.07;70.53;100209.44;5150419;28;20802;-81
2022/10/06 05:11:09;;;;;;;9.77;5.32;;;;;;;14.19;70.60;100218.16;5147379;28;20563;-84
2022/10/06 05:14:06;;;;;;;8.68;4.78;;;;;;;14.17;70.23;100230.81;5158037;28;20420;-81
2022/10/06 05:17:00;;;;;;;12.82;5.00;;;;;;;14.16;71.10;100233.59;5164798;28;20054;-82
2022/10/06 05:19:52;;;;;;;13.75;4.93;;;;;;;14.13;71.00;100207.19;5151158;28;20058;-85
2022/10/06 05:22:43;;;;;;;13.98;5.03;;;;;;;14.19;70.86;100217.31;5165529;28;20050;-82
2022/10/06 05:25:34;;;;;;;7.30;4.80;;;;;;;14.29;70.58;100232.38;5151007;28;20050;-84
2022/10/06 05:28:26;;;;;;;11.68;4.88;;;;;;;14.36;70.67;100238.00;5148821;28;20096;-81
2022/10/06 05:31:23;;;;;;;7.70;5.40;;;;;;;14.32;71.28;100232.09;5161055;28;20563;-84
2022/10/06 05:34:14;;;;;;;9.13;5.65;;;;;;;14.39;70.98;100237.72;5154177;28;20046;-83
2022/10/06 05:37:07;;;;;;;11.30;5.53;;;;;;;14.49;70.55;100245.75;5127452;28;20490;-84
2022/10/06 05:39:57;;;;;;;8.68;5.80;;;;;;;14.49;71.10;100230.56;5160925;28;20070;-85
2022/10/06 05:42:48;;;;;;;12.93;5.70;;;;;;;14.54;71.05;100233.72;5162442;28;20056;-84
2022/10/06 05:45:38;;;;;;;13.85;6.35;;;;;;;14.70;71.57;100227.81;5160764;28;20121;-85
2022/10/06 05:48:29;;;;;;;11.93;6.55;;;;;;;15.06;72.30;100245.94;5139531;28;20058;-83
2022/10/06 05:51:22;;;;;;;14.18;7.18;;;;;;;15.45;72.52;100258.22;5142566;28;20072;-84
2022/10/06 05:54:19;;;;;;;17.50;7.07;;;;;;;15.57;72.86;100247.38;5153243;28;20539;-82
2022/10/06 05:57:11;;;;;;;13.90;7.25;;;;;;;15.79;72.48;100263.09;5179029;23;20100;-71
2022/10/06 06:00:01;;;;;;;17.13;7.60;;;;;;;15.93;72.45;100273.34;5159932;28;20058;-71
2022/10/06 06:03:01;;;;;;;20.15;8.13;;;;;;;15.92;71.72;100263.59;5150870;28;20532;-70
2022/10/06 06:05:52;;;;;;;14.65;6.90;;;;;;;16.11;71.76;100273.38;5151518;28;20050;-70
2022/10/06 06:08:43;;;;;;;15.52;7.07;;;;;;;16.30;71.64;100287.66;5158252;28;20050;-70
2022/10/06 06:11:35;;;;;;;16.85;7.70;;;;;;;16.37;71.42;100291.44;5149434;28;20058;-70
2022/10/06 06:17:39;;;;;;;12.45;6.72;;;;;;;16.47;70.84;100297.56;5149255;28;20069;-71
2022/10/06 06:20:29;;;;;;;21.25;6.90;;;;;;;16.58;70.65;100304.53;5159957;28;20076;-71
2022/10/06 06:23:20;;;;;;;14.13;6.90;;;;;;;16.60;70.22;100313.28;5148651;28;20413;-70
2022/10/06 06:26:14;;;;;;;11.57;6.03;;;;;;;16.61;69.88;100320.31;5162657;28;20050;-70
2022/10/06 06:29:07;;;;;;;14.15;6.70;;;;;;;16.61;70.14;100313.09;5158737;28;20065;-69
2022/10/06 06:32:05;;;;;;;18.95;6.43;;;;;;;16.77;69.01;100327.72;5152558;28;20049;-71
2022/10/06 06:34:55;;;;;;;17.15;5.90;;;;;;;16.44;68.48;100336.19;5147622;28;20200;-72
2022/10/06 06:37:45;;;;;;;21.40;7.15;;;;;;;16.29;67.64;100344.84;5149345;28;20132;-71
2022/10/06 06:40:40;;;;;;;24.30;7.85;;;;;;;16.36;68.28;100348.63;5146384;28;20053;-71
2022/10/06 06:43:30;;;;;;;;;;;;;;;16.40;68.56;100356.22;5153097;28;20053;-71
2022/10/06 06:46:36;;;;;;;17.52;5.65;;;;;;;16.44;68.94;100359.44;5152865;28;19929;-70
2022/10/06 06:49:35;;;;;;;11.98;5.72;;;;;;;16.40;68.96;100353.53;5146982;28;20532;-71
2022/10/06 06:52:31;;;;;;;12.50;5.82;;;;;;;16.51;68.97;100370.38;5149453;28;20042;-73
2022/10/06 06:55:22;;;;;;;10.60;5.68;;;;;;;16.57;69.29;100377.84;5143801;28;20433;-72
2022/10/06 06:58:12;;;;;;;17.17;7.00;;;;;;;16.62;69.93;100379.09;5157801;28;20068;-72
2022/10/06 07:01:12;;;;;;;17.60;6.25;;;;;;;16.79;69.69;100364.06;5163204;28;20192;-72
2022/10/06 07:04:05;;;;;;;14.02;5.90;;;;;;;16.84;70.49;100383.19;5146767;28;20066;-71
2022/10/06 07:06:58;;;;;;;13.50;5.80;;;;;;;16.82;70.84;100387.88;5144133;28;20061;-72
2022/10/06 07:09:52;;;;;;;17.40;5.82;;;;;;;16.67;71.24;100398.22;5144866;28;20508;-70
2022/10/06 07:12:44;;;;;;;14.88;5.72;;;;;;;16.83;70.31;100394.91;5148160;28;20065;-70
2022/10/06 07:25:24;;;;;;;9.05;4.93;;;;;;;17.00;70.09;100411.19;5168483;28;20058;-73
2022/10/06 07:28:23;;;;;;;11.85;4.55;;;;;;;16.71;70.01;100398.75;5134326;28;20505;-71
2022/10/06 07:31:17;;;;;;;8.48;4.40;;;;;;;17.01;69.69;100426.25;5141133;28;20061;-72
2022/10/06 07:34:09;;;;;;;14.60;4.93;;;;;;;17.05;68.83;100419.59;5131605;28;20664;-71
2022/10/06 07:37:00;;;;;;;12.38;4.47;;;;;;;17.38;68.32;100424.31;5129595;28;20679;-73
2022/10/06 07:39:56;;;;;;;7.10;4.25;;;;;;;17.49;68.03;100425.09;5134883;28;20141;-73
2022/10/06 07:42:47;;;;;;;13.68;5.00;;;;;;;17.25;68.72;100418.50;5139514;28;20062;-72
2022/10/06 07:45:45;;;;;;;12.27;5.20;;;;;;;17.32;67.84;100426.78;5138238;28;20105;-72
2022/10/06 07:48:56;;;;;;;9.98;3.92;;;;;;;17.55;67.49;100435.19;5131345;28;20531;-72
2022/10/06 07:51:47;;;;;;;9.80;3.88;;;;;;;17.67;66.78;100439.31;5121913;28;20069;-73
2022/10/06 07:54:37;;;;;;;9.43;3.55;;;;;;;16.90;68.69;100446.91;5108014;28;20061;-73
2022/10/06 07:57:44;;;;;;;8.27;3.42;;;;;;;17.28;67.07;100450.31;5118856;28;20089;-73
2022/10/06 08:00:34;;;;;;;6.97;3.40;;;;;;;17.30;67.26;100455.56;5122366;28;20052;-74
2022/10/06 08:03:24;;;;;;;8.55;3.20;;;;;;;17.22;67.64;100450.09;5134142;28;20172;-73
2022/10/06 08:06:15;;;;;;;5.72;3.50;;;;;;;17.71;66.11;100463.97;5124207;28;20054;-73
2022/10/06 08:09:06;;;;;;;4.97;3.00;;;;;;;17.41;65.84;100449.97;5143893;28;20066;-73
2022/10/06 08:11:56;;;;;;;4.70;3.08;;;;;;;17.60;66.44;100468.59;5134970;28;20058;-73
2022/10/06 08:14:46;;;;;;;6.85;3.00;;;;;;;17.38;66.97;100474.38;5144276;28;20062;-73
2022/10/06 08:17:37;;;;;;;10.73;2.95;;;;;;;17.21;66.76;100469.84;5145963;28;20046;-73
2022/10/06 08:20:29;;;;;;;11.70;3.25;;;;;;;17.55;66.19;100473.59;5150484;28;20047;-72
2022/10/06 08:23:19;;;;;;;6.18;3.25;;;;;;;18.06;65.08;100482.78;5151717;28;20057;-73
2022/10/06 08:26:11;;;;;;;6.13;2.88;;;;;;;17.65;66.89;100473.50;5148458;28;20459;-73
2022/10/06 08:29:02;;;;;;;9.13;3.28;;;;;;;17.68;65.87;100483.94;5164479;28;20430;-73
2022/10/06 08:31:52;;;;;;;9.02;3.08;;;;;;;17.87;65.73;100482.94;5160882;28;20130;-71
2022/10/06 08:34:43;;;;;;;9.77;3.30;;;;;;;18.16;65.68;100495.25;5149492;28;20061;-72
2022/10/06 08:37:33;;;;;;;6.18;2.78;;;;;;;17.91;64.15;100491.53;5150170;28;20062;-72
2022/10/06 08:40:26;;;;;;;9.45;2.55;;;;;;;17.89;64.20;100490.84;5158352;28;20057;-74
2022/10/06 08:43:19;;;;;;;7.32;1.70;;;;;;;17.93;62.64;100478.81;5145437;28;20096;-72
2022/10/06 08:46:13;;;;;;;8.10;2.22;;;;;;;17.88;62.65;100499.88;5151743;28;20248;-72
2022/10/06 08:49:04;;;;;;;;;;;;;;;17.73;62.98;100496.88;5154223;28;20054;-72
2022/10/06 08:52:06;;;;;;;6.22;1.67;;;;;;;17.77;62.28;100501.81;5156456;28;19937;-73
2022/10/06 08:55:13;;;;;;;7.07;2.10;;;;;;;18.29;61.72;100498.38;5167033;28;21291;-71
2022/10/06 08:58:28;;;;;;;5.22;1.67;;;;;;;17.55;62.53;100505.78;5152955;28;20073;-74
2022/10/06 09:01:24;;;;;;;8.02;1.77;;;;;;;18.33;62.04;100505.13;5150848;28;20519;-72
2022/10/06 09:04:28;;;;;;;4.05;1.98;;;;;;;18.19;61.48;100519.13;5148737;28;20149;-73
2022/10/06 09:07:41;;;;;;;6.37;2.07;;;;;;;18.37;60.58;100511.00;5154160;28;20108;-72
2022/10/06 09:11:08;;;;;;;11.98;2.17;;;;;;;18.48;61.57;100513.47;5149968;28;20692;-72
2022/10/06 09:14:36;;;;;;;5.50;1.85;;;;;;;18.74;60.66;100513.44;5149038;28;20075;-72
2022/10/06 09:17:34;;;;;;;8.70;1.90;;;;;;;18.84;59.73;100499.91;5149591;28;20089;-72
2022/10/06 09:20:33;;;;;;;7.93;2.00;;;;;;;19.06;59.62;100515.47;5151396;28;20514;-72
2022/10/06 09:26:42;;;;;;;4.93;1.65;;;;;;;18.75;57.86;100512.47;5149709;28;20094;-72
2022/10/06 09:29:32;;;;;;;4.88;1.58;;;;;;;19.01;59.11;100512.44;5150675;28;20054;-72
2022/10/06 09:32:24;;;;;;;4.40;1.63;;;;;;;19.03;58.76;100515.78;5149938;28;20039;-72
2022/10/06 09:35:23;;;;;;;2.90;1.50;;;;;;;18.85;58.39;100532.00;5146551;28;20509;-72
2022/10/06 09:38:13;;;;;;;9.65;1.80;;;;;;;19.24;58.13;100531.53;5147662;28;20054;-73
2022/10/06 09:41:03;;;;;;;8.43;2.60;;;;;;;18.98;59.32;100528.88;5153393;28;20053;-72
2022/10/06 09:44:06;;;;;;;7.43;1.50;;;;;;;19.02;58.29;100516.81;5163151;28;20054;-72
2022/10/06 09:46:56;;;;;;;9.35;1.90;;;;;;;19.43;58.72;100514.25;5148782;28;20498;-72
2022/10/06 09:50:22;;;;;;;12.05;2.03;;;;;;;19.06;57.86;100534.28;5146650;28;20200;-72
2022/10/06 09:53:15;;;;;;;6.63;1.80;;;;;;;19.21;56.77;100504.94;5148697;28;20053;-72
2022/10/06 09:56:18;;;;;;;2.78;1.48;;;;;;;19.04;57.14;100517.50;5151710;28;20050;-72
2022/10/06 09:59:21;;;;;;;4.55;1.55;;;;;;;19.66;57.64;100538.72;5147323;28;20117;-72
2022/10/06 10:02:39;;;;;;;8.05;1.77;;;;;;;19.72;56.45;100540.75;5145599;28;20220;-72
2022/10/06 10:05:36;;;;;;;4.30;1.60;;;;;;;19.63;57.13;100547.94;5147976;28;20115;-72
2022/10/06 10:08:30;;;;;;;3.65;1.38;;;;;;;19.12;57.22;100522.88;5159326;28;20196;-72
2022/10/06 10:14:37;;;;;;;8.02;1.52;;;;;;;19.50;58.35;100536.78;5152038;28;20145;-72
2022/10/06 10:17:35;;;;;;;3.38;1.05;;;;;;;19.21;56.58;100558.72;5145131;28;20062;-72
2022/10/06 10:21:05;;;;;;;8.52;1.33;;;;;;;19.24;55.71;100547.66;5151359;28;20049;-72
2022/10/06 10:23:57;;;;;;;6.43;1.27;;;;;;;19.35;54.34;100546.50;5091044;29;20047;-72
2022/10/06 10:27:01;;;;;;;9.50;1.42;;;;;;;19.69;54.38;100550.00;5150794;28;20050;-74
2022/10/06 10:30:06;;;;;;;5.40;1.23;;;;;;;19.32;54.80;100554.91;5150320;28;20057;-75
2022/10/06 10:33:08;;;;;;;6.65;1.15;;;;;;;19.91;54.30;100547.69;5149616;28;20062;-73
2022/10/06 10:36:03;;;;;;;5.30;1.52;;;;;;;20.00;53.88;100545.81;5148025;28;20140;-72
2022/10/06 10:38:54;;;;;;;3.15;1.17;;;;;;;19.24;54.52;100543.13;5146596;28;20046;-72
2022/10/06 10:41:51;;;;;;;4.60;1.35;;;;;;;19.39;55.50;100529.88;5159352;28;20046;-71
2022/10/06 10:44:50;;;;;;;5.47;1.45;;;;;;;19.92;53.33;100519.75;5148026;28;20073;-72
2022/10/06 10:47:44;;;;;;;10.68;1.33;;;;;;;20.12;54.21;100525.66;5157543;28;20553;-74
2022/10/06 10:51:01;;;;;;;7.50;1.20;;;;;;;19.85;54.40;100542.97;5159874;28;20177;-73
2022/10/06 10:54:00;;;;;;;7.22;1.27;;;;;;;20.09;53.64;100544.81;5148845;28;20046;-72
2022/10/06 10:56:52;;;;;;;6.95;1.40;;;;;;;20.30;53.05;100541.66;5158889;28;20062;-72
2022/10/06 10:59:59;;;;;;;3.72;1.30;;;;;;;20.06;51.71;100529.84;5145197;28;20057;-71
2022/10/06 11:02:53;;;;;;;4.28;1.25;;;;;;;20.77;52.94;100532.84;5146020;28;20699;-71
2022/10/06 11:06:05;;;;;;;2.90;0.82;;;;;;;20.74;51.66;100504.38;5146490;28;20077;-71
2022/10/06 11:09:09;;;;;;;4.15;1.13;;;;;;;20.95;52.23;100522.66;5144889;28;20158;-70
2022/10/06 11:12:17;;;;;;;4.75;1.23;;;;;;;21.20;49.97;100525.28;5144830;28;20061;-71
2022/10/06 11:15:32;;;;;;;7.38;1.13;;;;;;;21.77;51.48;100524.97;5144667;28;20175;-71
2022/10/06 11:18:37;;;;;;;7.20;1.55;;;;;;;21.44;50.84;100525.19;5146509;28;20539;-71
2022/10/06 11:21:49;;;;;;;6.95;1.05;;;;;;;21.38;50.29;100517.78;5157945;28;20054;-71
2022/10/06 11:25:15;;;;;;;5.50;0.90;;;;;;;21.03;49.77;100525.34;5147886;28;20085;-70
2022/10/06 11:28:12;;;;;;;3.33;1.00;;;;;;;21.72;48.91;100521.97;5141334;28;20505;-71
2022/10/06 11:31:36;;;;;;;5.43;1.05;;;;;;;21.53;50.97;100518.72;5141965;28;20414;-73
2022/10/06 11:34:26;;;;;;;6.22;1.40;;;;;;;20.57;52.37;100529.69;5150722;28;20418;-72
2022/10/06 11:37:47;;;;;;;5.85;1.00;;;;;;;21.03;51.91;100519.97;5150492;28;20201;-72
2022/10/06 11:41:06;;;;;;;3.67;0.90;;;;;;;20.89;50.91;100512.56;5147459;28;20053;-72
2022/10/06 11:44:08;;;;;;;7.78;1.67;;;;;;;21.10;50.18;100517.41;5148087;28;20043;-72
2022/10/06 11:47:05;;;;;;;7.43;1.23;;;;;;;20.85;49.89;100503.16;5145497;28;20051;-70
2022/10/06 11:49:55;;;;;;;8.93;1.00;;;;;;;20.51;50.14;100496.19;5146589;28;20261;-70
2022/10/06 11:52:45;;;;;;;10.52;2.15;;;;;;;21.35;51.80;100504.66;5146694;28;20101;-70
2022/10/06 11:55:35;;;;;;;4.10;1.20;;;;;;;21.44;50.49;100498.19;5145312;28;20042;-71
2022/10/06 11:58:26;;;;;;;6.50;1.20;;;;;;;20.64;50.46;100493.78;5151687;28;20129;-70
2022/10/06 12:01:35;;;;;;;9.35;2.05;;;;;;;20.64;50.90;100501.03;5147048;28;20094;-73
2022/10/06 12:04:25;;;;;;;6.43;1.38;;;;;;;20.39;51.31;100495.66;5151083;28;20058;-70
2022/10/06 12:07:16;;;;;;;9.85;1.25;;;;;;;20.56;51.44;100496.53;5148756;28;20122;-72
2022/10/06 12:10:28;;;;;;;7.47;1.25;;;;;;;20.82;50.64;100506.19;5148719;28;20065;-72
2022/10/06 12:13:41;;;;;;;5.35;1.20;;;;;;;20.14;51.84;100486.78;5147465;28;20051;-69
2022/10/06 12:16:57;;;;;;;7.50;1.10;;;;;;;20.19;51.09;100497.88;5151295;28;20081;-71
2022/10/06 12:20:16;;;;;;;6.15;1.02;;;;;;;19.82;51.58;100497.53;5155733;28;20093;-73
2022/10/06 12:23:27;;;;;;;12.48;1.92;;;;;;;20.41;50.72;100500.88;5165642;28;20104;-73
2022/10/06 12:26:40;;;;;;;4.60;1.20;;;;;;;20.31;51.33;100489.44;5149089;28;20073;-71
2022/10/06 12:29:50;;;;;;;7.50;1.20;;;;;;;20.19;52.14;100489.78;5147892;28;20149;-72
2022/10/06 12:32:55;;;;;;;3.78;1.00;;;;;;;20.50;51.05;100475.63;5147544;28;20165;-72
2022/10/06 12:35:46;;;;;;;3.80;0.93;;;;;;;20.39;50.84;100478.66;5170321;28;20050;-72
2022/10/06 12:38:41;;;;;;;10.20;1.77;;;;;;;19.51;52.42;100490.06;5155620;28;20053;-73
2022/10/06 12:42:01;;;;;;;10.25;1.10;;;;;;;19.82;52.04;100478.69;5157738;28;20042;-72
2022/10/06 12:44:52;;;;;;;7.30;1.08;;;;;;;20.37;51.10;100483.38;5158236;28;20132;-73
2022/10/06 12:47:43;;;;;;;10.10;1.23;;;;;;;20.64;50.75;100477.63;5164047;28;20455;-73
2022/10/06 12:50:36;;;;;;;8.73;1.10;;;;;;;20.74;50.55;100479.28;5154054;28;20058;-72
2022/10/06 12:53:31;;;;;;;7.18;1.10;;;;;;;20.64;48.40;100464.16;5145576;28;20051;-72
2022/10/06 12:56:27;;;;;;;8.15;1.35;;;;;;;20.81;50.22;100482.97;5153565;28;20077;-72
2022/10/06 12:59:19;;;;;;;7.10;1.38;;;;;;;20.37;51.07;100475.31;5149368;28;20061;-72
2022/10/06 13:02:17;;;;;;;5.30;1.38;;;;;;;20.47;51.06;100480.50;5142790;28;20225;-73
2022/10/06 13:05:11;;;;;;;11.20;1.10;;;;;;;20.77;51.07;100473.53;5161458;28;20046;-72
2022/10/06 13:08:04;;;;;;;3.72;1.10;;;;;;;21.01;51.80;100475.28;5150237;28;20081;-72
2022/10/06 13:11:26;;;;;;;7.15;0.90;;;;;;;20.32;51.47;100461.50;5145080;28;20417;-73
2022/10/06 13:14:16;;;;;;;14.00;1.13;;;;;;;20.55;49.58;100470.56;5151060;28;20056;-73
2022/10/06 13:17:08;;;;;;;2.92;1.10;;;;;;;20.11;51.75;100470.94;5151567;28;21559;-71
2022/10/06 13:19:58;;;;;;;10.05;1.45;;;;;;;20.07;52.96;100475.00;5145964;28;20055;-72
2022/10/06 13:22:57;;;;;;;7.75;1.10;;;;;;;20.59;50.05;100466.50;5151048;28;20050;-71
2022/10/06 13:25:52;;;;;;;2.72;0.90;;;;;;;20.77;50.58;100466.28;5149579;28;20238;-71
2022/10/06 13:28:42;;;;;;;6.57;1.23;;;;;;;20.86;50.86;100473.34;5151682;28;20077;-71
2022/10/06 13:31:35;;;;;;;7.68;1.30;;;;;;;20.35;50.89;100456.59;5154152;28;20061;-73
2022/10/06 13:34:44;;;;;;;6.82;1.40;;;;;;;20.49;51.91;100459.59;5153099;28;20132;-73
2022/10/06 13:37:36;;;;;;;6.15;0.98;;;;;;;20.53;51.16;100459.13;5155231;28;20128;-73
2022/10/06 13:40:30;;;;;;;5.38;1.25;;;;;;;20.44;50.46;100465.53;5152001;28;20098;-71
2022/10/06 13:43:40;;;;;;;5.70;1.10;;;;;;;20.46;51.20;100468.03;5156127;28;20100;-73
2022/10/06 13:46:39;;;;;;;7.80;1.30;;;;;;;20.44;50.97;100456.59;5151258;28;20047;-74
2022/10/06 13:49:31;;;;;;;9.25;1.45;;;;;;;20.25;52.20;100464.03;5158364;28;20054;-73
2022/10/06 13:52:32;;;;;;;5.53;1.30;;;;;;;19.70;52.12;100468.28;5152373;28;20046;-74
2022/10/06 13:55:25;;;;;;;7.82;1.30;;;;;;;19.68;51.19;100462.19;5164623;28;20160;-71